createdAt,value
2023-08-17T00:01:15.153Z,18.60
2023-08-17T00:03:45.035Z,18.60
2023-08-17T00:06:13.515Z,18.60
2023-08-17T00:08:42.135Z,18.50
2023-08-17T00:11:10.985Z,18.50
2023-08-17T00:13:39.577Z,18.50
2023-08-17T00:16:07.962Z,18.40
2023-08-17T00:18:36.845Z,18.40
2023-08-17T00:21:08.358Z,18.30
2023-08-17T00:23:37.057Z,18.30
2023-08-17T00:26:07.486Z,18.30
2023-08-17T00:28:38.088Z,18.20
2023-08-17T00:31:06.965Z,18.20
2023-08-17T00:33:35.591Z,18.20
2023-08-17T00:36:04.049Z,18.10
2023-08-17T00:38:37.122Z,18.10
2023-08-17T00:41:05.576Z,18.10
2023-08-17T00:43:43.524Z,18.00
2023-08-17T00:46:23.517Z,18.00
2023-08-17T00:48:52.266Z,18.00
2023-08-17T00:51:22.019Z,17.90
2023-08-17T00:53:53.704Z,17.90
2023-08-17T00:56:22.660Z,17.80
2023-08-17T00:58:51.936Z,17.80
2023-08-17T01:01:21.755Z,17.70
2023-08-17T01:03:50.275Z,17.70
2023-08-17T01:06:18.714Z,17.70
2023-08-17T01:08:48.194Z,17.60
2023-08-17T01:11:24.565Z,17.60
2023-08-17T01:13:59.370Z,17.60
2023-08-17T01:16:33.598Z,17.50
2023-08-17T01:19:03.586Z,17.50
2023-08-17T01:21:40.412Z,17.40
2023-08-17T01:24:11.234Z,17.40
2023-08-17T01:26:39.583Z,17.30
2023-08-17T01:29:08.464Z,17.30
2023-08-17T01:31:42.961Z,17.20
2023-08-17T01:34:19.599Z,17.20
2023-08-17T01:36:55.343Z,17.20
2023-08-17T01:39:33.389Z,17.20
2023-08-17T01:42:04.024Z,17.20
2023-08-17T01:44:32.678Z,17.20
2023-08-17T01:47:01.358Z,17.10
2023-08-17T01:49:29.812Z,17.10
2023-08-17T01:51:58.502Z,17.10
2023-08-17T01:54:28.516Z,17.10
2023-08-17T01:56:57.031Z,17.10
2023-08-17T01:59:25.617Z,17.10
2023-08-17T02:01:54.031Z,17.10
2023-08-17T02:04:22.484Z,17.10
2023-08-17T02:06:51.365Z,17.10
2023-08-17T02:09:19.735Z,17.10
2023-08-17T02:11:49.626Z,17.10
2023-08-17T02:14:18.197Z,17.10
2023-08-17T02:16:46.548Z,17.10
2023-08-17T02:19:15.154Z,17.10
2023-08-17T02:21:43.685Z,17.00
2023-08-17T02:24:12.088Z,17.10
2023-08-17T02:26:41.274Z,17.00
2023-08-17T02:29:11.214Z,17.10
2023-08-17T02:31:39.793Z,17.10
2023-08-17T02:34:09.114Z,17.10
2023-08-17T02:36:37.528Z,17.10
2023-08-17T02:39:06.286Z,17.00
2023-08-17T02:41:34.692Z,17.00
2023-08-17T02:44:04.410Z,17.00
2023-08-17T02:46:34.264Z,16.90
2023-08-17T02:49:02.891Z,16.90
2023-08-17T02:51:31.420Z,16.90
2023-08-17T02:53:59.722Z,16.90
2023-08-17T02:56:28.230Z,16.90
2023-08-17T02:58:56.638Z,16.90
2023-08-17T03:01:25.034Z,16.90
2023-08-17T03:03:54.780Z,16.90
2023-08-17T03:06:23.261Z,16.80
2023-08-17T03:08:53.645Z,16.80
2023-08-17T03:11:22.944Z,16.80
2023-08-17T03:13:51.439Z,16.80
2023-08-17T03:16:19.750Z,16.80
2023-08-17T03:18:49.361Z,16.70
2023-08-17T03:21:19.796Z,16.70
2023-08-17T03:23:48.279Z,16.70
2023-08-17T03:26:16.930Z,16.70
2023-08-17T03:28:45.422Z,16.70
2023-08-17T03:31:13.950Z,16.70
2023-08-17T03:33:42.850Z,16.70
2023-08-17T03:36:11.369Z,16.70
2023-08-17T03:38:41.213Z,16.70
2023-08-17T03:41:09.904Z,16.60
2023-08-17T03:43:38.315Z,16.60
2023-08-17T03:46:07.333Z,16.60
2023-08-17T03:48:35.837Z,16.60
2023-08-17T03:51:05.691Z,16.60
2023-08-17T03:53:34.024Z,16.60
2023-08-17T03:56:04.042Z,16.60
2023-08-17T03:58:35.870Z,16.60
2023-08-17T04:01:06.907Z,16.60
2023-08-17T04:03:35.489Z,16.60
2023-08-17T04:06:08.161Z,16.60
2023-08-17T04:08:36.686Z,16.50
2023-08-17T04:11:06.506Z,16.50
2023-08-17T04:13:35.193Z,16.50
2023-08-17T04:16:03.892Z,16.50
2023-08-17T04:18:32.553Z,16.50
2023-08-17T04:21:04.317Z,16.50
2023-08-17T04:23:32.766Z,16.50
2023-08-17T04:26:01.472Z,16.50
2023-08-17T04:28:31.363Z,16.60
2023-08-17T04:31:00.131Z,16.50
2023-08-17T04:33:28.658Z,16.50
2023-08-17T04:35:57.306Z,16.60
2023-08-17T04:38:25.725Z,16.60
2023-08-17T04:40:54.238Z,16.60
2023-08-17T04:43:22.658Z,16.60
2023-08-17T04:45:52.388Z,16.60
2023-08-17T04:48:20.823Z,16.60
2023-08-17T04:50:49.298Z,16.60
2023-08-17T04:53:17.726Z,16.60
2023-08-17T04:55:46.110Z,16.60
2023-08-17T04:58:14.611Z,16.60
2023-08-17T05:00:43.079Z,16.60
2023-08-17T05:03:23.875Z,16.60
2023-08-17T05:06:00.302Z,16.60
2023-08-17T05:08:28.777Z,16.60
2023-08-17T05:10:57.259Z,16.60
2023-08-17T05:13:25.666Z,16.60
2023-08-17T05:15:54.128Z,16.70
2023-08-17T05:18:23.963Z,16.70
2023-08-17T05:20:52.354Z,16.70
2023-08-17T05:23:20.922Z,16.80
2023-08-17T05:25:49.805Z,16.80
2023-08-17T05:28:18.406Z,16.80
2023-08-17T05:30:46.812Z,16.80
2023-08-17T05:33:15.342Z,16.80
2023-08-17T05:35:45.182Z,16.80
2023-08-17T05:38:13.513Z,16.90
2023-08-17T05:40:42.099Z,16.90
2023-08-17T05:43:10.474Z,16.90
2023-08-17T05:45:39.005Z,16.90
2023-08-17T05:48:08.124Z,17.00
2023-08-17T05:50:36.575Z,17.00
2023-08-17T05:53:06.541Z,17.10
2023-08-17T05:55:34.993Z,17.10
2023-08-17T05:58:05.034Z,17.10
2023-08-17T06:00:33.637Z,17.20
2023-08-17T06:03:03.352Z,17.20
2023-08-17T06:05:32.113Z,17.20
2023-08-17T06:08:00.892Z,17.30
2023-08-17T06:10:30.911Z,17.30
2023-08-17T06:12:59.451Z,17.30
2023-08-17T06:15:28.054Z,17.40
2023-08-17T06:17:56.649Z,17.40
2023-08-17T06:20:25.052Z,17.40
2023-08-17T06:22:53.461Z,17.40
2023-08-17T06:25:21.990Z,17.40
2023-08-17T06:27:52.976Z,17.40
2023-08-17T06:30:21.573Z,17.50
2023-08-17T06:32:50.581Z,17.50
2023-08-17T06:35:19.208Z,17.50
2023-08-17T06:37:47.526Z,17.40
2023-08-17T06:40:16.031Z,17.40
2023-08-17T06:42:44.384Z,17.50
2023-08-17T06:45:14.190Z,17.50
2023-08-17T06:47:42.731Z,17.60
2023-08-17T06:50:13.232Z,17.70
2023-08-17T06:52:42.219Z,17.70
2023-08-17T06:55:11.593Z,17.80
2023-08-17T06:57:40.038Z,17.80
2023-08-17T07:00:11.844Z,17.80
2023-08-17T07:02:52.910Z,17.90
2023-08-17T07:05:25.049Z,17.90
2023-08-17T07:07:54.094Z,17.90
2023-08-17T07:10:22.847Z,17.90
2023-08-17T07:12:51.220Z,17.90
2023-08-17T07:15:19.754Z,18.00
2023-08-17T07:17:49.648Z,17.90
2023-08-17T07:20:18.066Z,18.00
2023-08-17T07:22:46.628Z,18.00
2023-08-17T07:25:15.314Z,18.10
2023-08-17T07:27:44.201Z,18.00
2023-08-17T07:30:13.892Z,18.10
2023-08-17T07:32:42.474Z,18.10
2023-08-17T07:35:12.494Z,18.10
2023-08-17T07:37:40.994Z,18.10
2023-08-17T07:40:10.413Z,18.00
2023-08-17T07:42:39.471Z,18.00
2023-08-17T07:45:08.837Z,17.90
2023-08-17T07:47:38.533Z,18.00
2023-08-17T07:50:07.794Z,18.00
2023-08-17T07:52:37.717Z,18.00
2023-08-17T07:55:06.762Z,18.10
2023-08-17T07:57:35.168Z,18.20
2023-08-17T08:00:03.637Z,18.30
2023-08-17T08:02:32.157Z,18.40
2023-08-17T08:05:00.692Z,18.50
2023-08-17T08:07:29.492Z,18.50
2023-08-17T08:09:59.491Z,18.60
2023-08-17T08:12:27.971Z,18.70
2023-08-17T08:14:56.467Z,18.70
2023-08-17T08:17:24.876Z,18.80
2023-08-17T08:19:53.844Z,18.90
2023-08-17T08:22:22.112Z,18.90
2023-08-17T08:24:50.444Z,18.90
2023-08-17T08:27:20.342Z,18.90
2023-08-17T08:29:48.974Z,18.90
2023-08-17T08:32:17.332Z,18.90
2023-08-17T08:34:45.864Z,18.90
2023-08-17T08:37:14.404Z,18.90
2023-08-17T08:39:53.128Z,19.00
2023-08-17T08:42:24.519Z,19.20
2023-08-17T08:44:53.189Z,19.20
2023-08-17T08:47:22.348Z,19.20
2023-08-17T08:50:00.587Z,19.20
2023-08-17T08:52:35.592Z,19.20
2023-08-17T08:55:13.383Z,19.10
2023-08-17T08:57:44.050Z,19.10
2023-08-17T09:00:14.929Z,19.20
2023-08-17T09:02:44.682Z,19.40
2023-08-17T09:05:13.997Z,19.50
2023-08-17T09:07:43.329Z,19.50
2023-08-17T09:10:12.702Z,19.50
2023-08-17T09:15:17.185Z,19.40
2023-08-17T09:17:46.108Z,19.40
2023-08-17T09:20:14.962Z,19.40
2023-08-17T09:22:45.465Z,19.50
2023-08-17T09:25:24.200Z,19.50
2023-08-17T09:27:54.014Z,19.60
2023-08-17T09:30:22.363Z,19.60
2023-08-17T09:32:51.258Z,19.70
2023-08-17T09:35:20.586Z,19.70
2023-08-17T09:37:50.409Z,19.70
2023-08-17T09:40:22.415Z,19.70
2023-08-17T09:42:51.242Z,19.70
2023-08-17T09:45:21.769Z,19.80
2023-08-17T09:47:50.251Z,19.70
2023-08-17T09:50:18.612Z,19.70
2023-08-17T09:52:51.268Z,19.70
2023-08-17T09:55:20.016Z,19.70
2023-08-17T09:57:49.820Z,19.70
2023-08-17T10:00:18.883Z,19.70
2023-08-17T10:02:52.239Z,19.70
2023-08-17T10:05:23.502Z,19.70
2023-08-17T10:07:56.344Z,19.80
2023-08-17T10:10:28.111Z,19.80
2023-08-17T10:13:07.599Z,19.80
2023-08-17T10:15:39.828Z,19.80
2023-08-17T10:18:17.552Z,19.80
2023-08-17T10:20:57.616Z,19.80
2023-08-17T10:23:26.918Z,19.70
2023-08-17T10:25:55.930Z,19.70
2023-08-17T10:28:25.394Z,19.60
2023-08-17T10:30:53.773Z,19.60
2023-08-17T10:33:24.088Z,19.50
2023-08-17T10:35:53.016Z,19.50
2023-08-17T10:38:21.651Z,19.50
2023-08-17T10:41:10.361Z,19.40
2023-08-17T10:43:56.048Z,19.50
2023-08-17T10:46:34.028Z,19.50
2023-08-17T10:49:06.926Z,19.60
2023-08-17T10:51:35.449Z,19.60
2023-08-17T10:54:05.690Z,19.50
2023-08-17T10:56:35.403Z,19.50
2023-08-17T10:59:04.268Z,19.50
2023-08-17T11:01:37.959Z,19.40
2023-08-17T11:04:15.220Z,19.40
2023-08-17T11:06:45.119Z,19.40
2023-08-17T11:09:14.053Z,19.40
2023-08-17T11:11:42.559Z,19.40
2023-08-17T11:14:11.324Z,19.40
2023-08-17T11:16:39.693Z,19.40
2023-08-17T11:19:13.492Z,19.40
2023-08-17T11:21:44.386Z,19.30
2023-08-17T11:24:12.963Z,19.30
2023-08-17T11:26:41.357Z,19.20
2023-08-17T11:29:10.540Z,19.20
2023-08-17T11:31:41.731Z,19.20
2023-08-17T11:34:10.343Z,19.20
2023-08-17T11:36:40.260Z,19.20
2023-08-17T11:39:10.974Z,19.20
2023-08-17T11:41:39.584Z,19.20
2023-08-17T11:44:08.316Z,19.20
2023-08-17T11:46:40.253Z,19.20
2023-08-17T11:49:08.733Z,19.20
2023-08-17T11:54:12.501Z,19.20
2023-08-17T11:56:41.013Z,19.30
2023-08-17T11:59:15.232Z,19.30
2023-08-17T12:01:43.581Z,19.30
2023-08-17T12:04:12.039Z,19.40
2023-08-17T12:06:45.949Z,19.50
2023-08-17T12:09:16.147Z,19.50
2023-08-17T12:11:47.544Z,19.60
2023-08-17T12:14:16.032Z,19.60
2023-08-17T12:16:51.063Z,19.70
2023-08-17T12:19:21.633Z,19.70
2023-08-17T12:21:51.659Z,19.70
2023-08-17T12:24:21.871Z,19.80
2023-08-17T12:26:51.658Z,19.80
2023-08-17T12:29:21.482Z,19.80
2023-08-17T12:31:50.103Z,19.80
2023-08-17T12:34:18.500Z,19.80
2023-08-17T12:36:47.307Z,19.70
2023-08-17T12:39:16.149Z,19.70
2023-08-17T12:41:46.262Z,19.60
2023-08-17T12:44:17.693Z,19.60
2023-08-17T12:46:46.419Z,19.60
2023-08-17T12:49:14.954Z,19.60
2023-08-17T12:51:46.537Z,19.60
2023-08-17T12:54:15.087Z,19.60
2023-08-17T12:56:43.427Z,19.70
2023-08-17T12:59:13.215Z,19.70
2023-08-17T13:01:41.602Z,19.70
2023-08-17T13:04:09.878Z,19.60
2023-08-17T13:06:48.926Z,19.60
2023-08-17T13:09:19.929Z,19.60
2023-08-17T13:11:48.505Z,19.60
2023-08-17T13:14:18.313Z,19.60
2023-08-17T13:16:46.742Z,19.60
2023-08-17T13:19:15.165Z,19.60
2023-08-17T13:21:43.452Z,19.60
2023-08-17T13:24:11.932Z,19.50
2023-08-17T13:26:40.344Z,19.60
2023-08-17T13:29:10.346Z,19.60
2023-08-17T13:31:40.298Z,19.60
2023-08-17T13:34:08.765Z,19.60
2023-08-17T13:36:38.108Z,19.60
2023-08-17T13:39:07.350Z,19.60
2023-08-17T13:41:35.761Z,19.70
2023-08-17T13:44:04.490Z,19.70
2023-08-17T13:46:32.879Z,19.70
2023-08-17T13:49:02.832Z,19.80
2023-08-17T13:51:31.321Z,19.70
2023-08-17T13:53:59.756Z,19.70
2023-08-17T13:56:31.184Z,19.80
2023-08-17T13:58:59.596Z,19.80
2023-08-17T14:01:28.451Z,19.80
2023-08-17T14:03:57.309Z,19.90
2023-08-17T14:06:27.281Z,19.90
2023-08-17T14:08:56.714Z,19.90
2023-08-17T14:11:26.496Z,19.80
2023-08-17T14:13:54.973Z,19.80
2023-08-17T14:16:23.293Z,19.70
2023-08-17T14:18:51.664Z,19.70
2023-08-17T14:21:20.028Z,19.70
2023-08-17T14:23:49.746Z,19.60
2023-08-17T14:26:18.035Z,19.60
2023-08-17T14:28:46.384Z,19.50
2023-08-17T14:31:17.134Z,19.50
2023-08-17T14:33:45.712Z,19.50
2023-08-17T14:36:19.652Z,19.50
2023-08-17T14:38:50.432Z,19.50
2023-08-17T14:41:18.942Z,19.40
2023-08-17T14:43:47.494Z,19.40
2023-08-17T14:46:16.633Z,19.50
2023-08-17T14:48:45.067Z,19.60
2023-08-17T14:51:13.350Z,19.60
2023-08-17T14:53:41.755Z,19.60
2023-08-17T14:56:12.025Z,19.60
2023-08-17T14:58:40.563Z,19.60
2023-08-17T15:01:08.886Z,19.60
2023-08-17T15:03:37.277Z,19.50
2023-08-17T15:06:05.884Z,19.60
2023-08-17T15:08:34.348Z,19.60
2023-08-17T15:11:03.392Z,19.50
2023-08-17T15:13:33.997Z,19.50
2023-08-17T15:16:02.668Z,19.50
2023-08-17T15:18:31.039Z,19.40
2023-08-17T15:20:59.383Z,19.40
2023-08-17T15:23:27.883Z,19.30
2023-08-17T15:25:56.456Z,19.30
2023-08-17T15:28:24.775Z,19.20
2023-08-17T15:31:05.629Z,19.20
2023-08-17T15:33:34.202Z,19.20
2023-08-17T15:36:02.586Z,19.10
2023-08-17T15:38:31.169Z,19.10
2023-08-17T15:40:59.500Z,19.00
2023-08-17T15:43:27.823Z,18.90
2023-08-17T15:45:57.701Z,18.90
2023-08-17T15:48:29.554Z,18.90
2023-08-17T15:50:57.885Z,18.80
2023-08-17T15:53:26.287Z,18.80
2023-08-17T15:55:54.652Z,18.80
2023-08-17T15:58:23.091Z,18.70
2023-08-17T16:00:51.450Z,18.70
2023-08-17T16:03:21.332Z,18.70
2023-08-17T16:05:49.816Z,18.70
2023-08-17T16:08:20.593Z,18.70
2023-08-17T16:10:52.442Z,18.70
2023-08-17T16:13:20.906Z,18.70
2023-08-17T16:15:53.102Z,18.70
2023-08-17T16:18:23.219Z,18.70
2023-08-17T16:20:51.552Z,18.70
2023-08-17T16:23:23.075Z,18.70
2023-08-17T16:25:52.008Z,18.60
2023-08-17T16:28:20.610Z,18.60
2023-08-17T16:30:48.852Z,18.60
2023-08-17T16:33:18.841Z,18.60
2023-08-17T16:35:50.304Z,18.50
2023-08-17T16:38:19.542Z,18.50
2023-08-17T16:40:47.953Z,18.50
2023-08-17T16:43:16.280Z,18.50
2023-08-17T16:45:44.626Z,18.40
2023-08-17T16:48:13.258Z,18.40
2023-08-17T16:50:41.699Z,18.30
2023-08-17T16:53:11.514Z,18.30
2023-08-17T16:55:39.882Z,18.30
2023-08-17T16:58:08.283Z,18.30
2023-08-17T17:00:36.642Z,18.30
2023-08-17T17:03:05.429Z,18.20
2023-08-17T17:05:33.923Z,18.20
2023-08-17T17:08:02.530Z,18.20
2023-08-17T17:10:32.309Z,18.10
2023-08-17T17:13:00.837Z,18.10
2023-08-17T17:15:32.207Z,18.10
2023-08-17T17:18:00.803Z,18.10
2023-08-17T17:20:29.181Z,18.10
2023-08-17T17:22:57.643Z,18.00
2023-08-17T17:25:25.991Z,18.00
2023-08-17T17:27:56.456Z,18.00
2023-08-17T17:30:24.815Z,18.00
2023-08-17T17:32:53.450Z,17.90
2023-08-17T17:35:22.080Z,17.90
2023-08-17T17:37:50.484Z,17.90
2023-08-17T17:40:18.840Z,17.90
2023-08-17T17:42:47.487Z,17.80
2023-08-17T17:45:17.330Z,17.80
2023-08-17T17:47:45.736Z,17.80
2023-08-17T17:50:14.115Z,17.80
2023-08-17T17:52:42.445Z,17.80
2023-08-17T17:55:11.327Z,17.80
2023-08-17T17:57:39.781Z,17.80
2023-08-17T18:00:10.333Z,17.80
2023-08-17T18:02:40.374Z,17.80
2023-08-17T18:05:11.450Z,17.80
2023-08-17T18:07:40.574Z,17.80
2023-08-17T18:10:10.116Z,17.80
2023-08-17T18:12:38.625Z,17.70
2023-08-17T18:15:08.190Z,17.70
2023-08-17T18:17:36.767Z,17.70
2023-08-17T18:20:08.268Z,17.70
2023-08-17T18:22:36.988Z,17.70
2023-08-17T18:25:06.270Z,17.70
2023-08-17T18:27:38.186Z,17.70
2023-08-17T18:30:08.813Z,17.70
2023-08-17T18:32:37.464Z,17.70
2023-08-17T18:35:07.873Z,17.70
2023-08-17T18:37:36.593Z,17.70
2023-08-17T18:40:06.085Z,17.70
2023-08-17T18:42:34.553Z,17.70
2023-08-17T18:45:09.808Z,17.70
2023-08-17T18:47:38.134Z,17.60
2023-08-17T18:50:09.565Z,17.60
2023-08-17T18:52:38.034Z,17.60
2023-08-17T18:55:12.148Z,17.60
2023-08-17T18:57:41.837Z,17.60
2023-08-17T19:00:12.288Z,17.60
2023-08-17T19:02:41.551Z,17.60
2023-08-17T19:05:11.783Z,17.50
2023-08-17T19:07:40.248Z,17.50
2023-08-17T19:10:09.892Z,17.50
2023-08-17T19:12:38.439Z,17.50
2023-08-17T19:15:07.643Z,17.50
2023-08-17T19:17:36.110Z,17.40
2023-08-17T19:20:04.978Z,17.40
2023-08-17T19:22:34.702Z,17.40
2023-08-17T19:25:03.760Z,17.40
2023-08-17T19:27:32.391Z,17.40
2023-08-17T19:30:01.028Z,17.30
2023-08-17T19:32:29.421Z,17.30
2023-08-17T19:34:57.866Z,17.30
2023-08-17T19:37:26.825Z,17.30
2023-08-17T19:39:57.207Z,17.30
2023-08-17T19:42:25.660Z,17.30
2023-08-17T19:44:54.054Z,17.30
2023-08-17T19:47:22.424Z,17.20
2023-08-17T19:49:50.981Z,17.20
2023-08-17T19:52:19.292Z,17.20
2023-08-17T19:54:52.942Z,17.20
2023-08-17T19:57:23.408Z,17.20
2023-08-17T19:59:51.914Z,17.20
2023-08-17T20:02:20.242Z,17.20
2023-08-17T20:04:48.734Z,17.20
2023-08-17T20:07:17.126Z,17.20
2023-08-17T20:09:45.584Z,17.20
2023-08-17T20:12:15.108Z,17.10
2023-08-17T20:14:44.864Z,17.10
2023-08-17T20:17:13.444Z,17.10
2023-08-17T20:19:41.967Z,17.10
2023-08-17T20:22:10.232Z,17.10
2023-08-17T20:24:38.773Z,17.10
2023-08-17T20:27:10.056Z,17.10
2023-08-17T20:29:39.523Z,17.10
2023-08-17T20:32:09.263Z,17.10
2023-08-17T20:34:38.800Z,17.10
2023-08-17T20:37:07.204Z,17.10
2023-08-17T20:39:36.550Z,17.10
2023-08-17T20:42:09.895Z,17.10
2023-08-17T20:44:38.462Z,17.10
2023-08-17T20:47:09.915Z,17.00
2023-08-17T20:49:41.304Z,17.10
2023-08-17T20:52:09.984Z,17.10
2023-08-17T20:54:39.366Z,17.10
2023-08-17T20:57:08.376Z,17.10
2023-08-17T20:59:37.169Z,17.10
2023-08-17T21:02:05.541Z,17.10
2023-08-17T21:04:35.714Z,17.00
2023-08-17T21:07:04.999Z,17.10
2023-08-17T21:09:33.947Z,17.00
2023-08-17T21:12:03.212Z,17.00
2023-08-17T21:14:31.677Z,17.00
2023-08-17T21:17:00.097Z,17.00
2023-08-17T21:19:28.472Z,17.00
2023-08-17T21:21:58.341Z,17.00
2023-08-17T21:24:28.363Z,17.00
2023-08-17T21:26:56.676Z,17.00
2023-08-17T21:29:25.457Z,17.00
2023-08-17T21:31:53.840Z,17.00
2023-08-17T21:34:22.212Z,17.00
2023-08-17T21:36:50.483Z,17.00
2023-08-17T21:39:20.232Z,17.00
2023-08-17T21:41:48.854Z,17.00
2023-08-17T21:44:17.403Z,17.00
2023-08-17T21:46:46.044Z,17.00
2023-08-17T21:49:14.622Z,17.00
2023-08-17T21:51:43.042Z,17.00
2023-08-17T21:54:11.337Z,17.00
2023-08-17T21:56:41.193Z,17.00
2023-08-17T21:59:09.574Z,17.00
2023-08-17T22:01:38.112Z,17.00
2023-08-17T22:04:06.877Z,16.90
2023-08-17T22:06:35.402Z,16.90
2023-08-17T22:09:03.828Z,16.90
2023-08-17T22:11:32.196Z,16.90
2023-08-17T22:14:01.963Z,16.90
2023-08-17T22:16:30.752Z,16.90
2023-08-17T22:18:59.613Z,16.90
2023-08-17T22:21:28.731Z,16.90
2023-08-17T22:23:57.424Z,16.90
2023-08-17T22:26:26.046Z,16.90
2023-08-17T22:28:54.906Z,16.90
2023-08-17T22:31:24.877Z,16.80
2023-08-17T22:33:53.743Z,16.90
2023-08-17T22:36:22.310Z,16.90
2023-08-17T22:38:50.902Z,16.90
2023-08-17T22:41:19.446Z,16.90
2023-08-17T22:43:48.109Z,16.80
2023-08-17T22:46:16.646Z,16.80
2023-08-17T22:48:48.005Z,16.80
2023-08-17T22:51:17.166Z,16.80
2023-08-17T22:53:45.522Z,16.80
2023-08-17T22:56:13.947Z,16.80
2023-08-17T22:58:42.612Z,16.80
2023-08-17T23:01:11.962Z,16.80
2023-08-17T23:03:40.424Z,16.80
2023-08-17T23:06:10.200Z,16.80
2023-08-17T23:08:41.381Z,16.80
2023-08-17T23:11:18.594Z,16.80
2023-08-17T23:14:28.890Z,16.80
2023-08-17T23:20:06.094Z,16.80
2023-08-17T23:23:15.043Z,16.80
2023-08-17T23:26:03.353Z,16.80
2023-08-17T23:28:54.958Z,16.80
2023-08-17T23:34:55.887Z,16.80
2023-08-17T23:37:43.175Z,16.80
2023-08-17T23:40:41.182Z,16.80
2023-08-17T23:43:38.106Z,16.80
2023-08-17T23:46:46.630Z,16.80
2023-08-17T23:49:40.950Z,16.80
2023-08-17T23:52:51.450Z,16.80
2023-08-17T23:55:30.067Z,16.80
2023-08-17T23:58:22.594Z,16.80
